createdAt,value
2018-09-26T00:15:50.894Z,96008.11
2018-09-26T00:30:51.764Z,96018.64
2018-09-26T00:45:54.535Z,96011.27
2018-09-26T01:00:50.042Z,96016.91
2018-09-26T01:15:50.939Z,96023.63
2018-09-26T01:30:53.955Z,96030.09
2018-09-26T01:45:50.451Z,96027.55
2018-09-26T02:00:51.027Z,96027.16
2018-09-26T02:30:51.077Z,96031.13
2018-09-26T02:45:53.149Z,96020.77
2018-09-26T03:00:50.397Z,96026.88
2018-09-26T03:15:50.558Z,96013.14
2018-09-26T03:30:50.352Z,96021.40
2018-09-26T03:45:51.206Z,96018.62
2018-09-26T04:00:50.863Z,96018.12
2018-09-26T04:15:54.799Z,96036.36
2018-09-26T04:30:50.724Z,96059.82
2018-09-26T04:45:50.684Z,96073.06
2018-09-26T05:00:53.242Z,96082.67
2018-09-26T05:15:52.145Z,96090.84
2018-09-26T05:30:51.173Z,96094.30
2018-09-26T05:45:53.404Z,96119.09
2018-09-26T06:00:50.018Z,96127.94
2018-09-26T06:15:50.458Z,96133.06
2018-09-26T06:30:52.743Z,96143.67
2018-09-26T06:45:51.518Z,96147.90
2018-09-26T07:00:50.798Z,96155.88
2018-09-26T07:15:50.697Z,96150.56
2018-09-26T07:30:50.591Z,96141.34
2018-09-26T07:45:50.458Z,96148.81
2018-09-26T08:00:51.154Z,96150.56
2018-09-26T08:15:50.774Z,96142.94
2018-09-26T08:30:51.838Z,96160.27
2018-09-26T08:45:50.906Z,96155.14
2018-09-26T09:45:57.113Z,96150.50
2018-09-26T10:00:55.501Z,96148.64
2018-09-26T10:15:50.373Z,96143.27
2018-09-26T10:30:50.458Z,96145.08
2018-09-26T10:45:52.378Z,96138.58
2018-09-26T11:00:50.613Z,96140.75
2018-09-26T11:15:50.775Z,96121.80
2018-09-26T11:30:51.351Z,96112.09
2018-09-26T11:45:50.668Z,96100.66
2018-09-26T12:00:51.471Z,96078.19
2018-09-26T12:15:51.114Z,96069.33
2018-09-26T12:30:50.976Z,96044.09
2018-09-26T12:45:50.931Z,96049.61
2018-09-26T13:00:52.483Z,96077.95
2018-09-26T13:15:55.879Z,96063.30
2018-09-26T13:30:50.088Z,96037.21
2018-09-26T13:45:50.845Z,96035.14
2018-09-26T14:00:50.314Z,96034.86
2018-09-26T14:15:50.447Z,96037.93
2018-09-26T14:30:51.003Z,96030.85
2018-09-26T14:45:51.283Z,96046.16
2018-09-26T15:00:52.170Z,96053.01
2018-09-26T15:15:54.643Z,96058.02
2018-09-26T15:30:50.639Z,96068.53
2018-09-26T15:45:51.715Z,96069.60
2018-09-26T16:00:51.269Z,96072.23
2018-09-26T16:15:50.976Z,96093.82
2018-09-26T16:30:52.977Z,96105.36
2018-09-26T16:45:54.250Z,96111.34
2018-09-26T17:00:50.177Z,96139.63
2018-09-26T17:15:50.476Z,96146.05
2018-09-26T17:30:49.689Z,96142.98
2018-09-26T17:45:50.152Z,96158.09
2018-09-26T18:00:50.431Z,96165.09
2018-09-26T18:15:50.444Z,96171.16
2018-09-26T18:30:50.792Z,96150.13
2018-09-26T18:45:51.410Z,96146.38
2018-09-26T19:00:50.935Z,96145.75
2018-09-26T19:15:50.942Z,96161.56
2018-09-26T19:30:50.683Z,96170.77
2018-09-26T19:45:50.616Z,96174.09
2018-09-26T20:00:51.011Z,96169.81
2018-09-26T20:15:51.201Z,96160.66
2018-09-26T20:30:51.507Z,96164.81
2018-09-26T20:45:52.858Z,96162.17
2018-09-26T21:00:51.489Z,96150.91
2018-09-26T21:15:51.193Z,96151.55
2018-09-26T21:30:51.191Z,96159.18
2018-09-26T21:45:56.174Z,96173.83
2018-09-26T22:00:55.918Z,96157.59
2018-09-26T22:15:50.621Z,96157.01
2018-09-26T22:30:50.739Z,96148.36
2018-09-26T22:45:51.271Z,96149.91
2018-09-26T23:00:50.936Z,96155.12
2018-09-26T23:15:50.713Z,96144.16
2018-09-26T23:30:50.715Z,96137.98
2018-09-26T23:45:50.710Z,96124.89
